sensor_id;sensor_type;location;lat;lon;timestamp;P1;durP1;ratioP1;P2;durP2;ratioP2
41719;SDS011;27405;53.316;-6.294;2024-02-14T00:02:16;0.25;;;0.20;;
41719;SDS011;27405;53.316;-6.294;2024-02-14T00:04:42;0.10;;;0.10;;
41719;SDS011;27405;53.316;-6.294;2024-02-14T00:07:08;0.10;;;0.10;;
41719;SDS011;27405;53.316;-6.294;2024-02-14T00:09:34;0.10;;;0.10;;
41719;SDS011;27405;53.316;-6.294;2024-02-14T00:12:00;0.00;;;0.00;;
41719;SDS011;27405;53.316;-6.294;2024-02-14T00:14:25;0.10;;;0.10;;
41719;SDS011;27405;53.316;-6.294;2024-02-14T00:16:51;0.10;;;0.10;;
41719;SDS011;27405;53.316;-6.294;2024-02-14T00:19:17;0.10;;;0.10;;
41719;SDS011;27405;53.316;-6.294;2024-02-14T00:21:42;0.10;;;0.10;;
41719;SDS011;27405;53.316;-6.294;2024-02-14T00:24:08;0.00;;;0.00;;
41719;SDS011;27405;53.316;-6.294;2024-02-14T00:26:34;0.10;;;0.10;;
41719;SDS011;27405;53.316;-6.294;2024-02-14T00:29:00;0.10;;;0.10;;
41719;SDS011;27405;53.316;-6.294;2024-02-14T00:31:27;0.10;;;0.10;;
41719;SDS011;27405;53.316;-6.294;2024-02-14T00:33:53;0.00;;;0.00;;
41719;SDS011;27405;53.316;-6.294;2024-02-14T00:36:18;0.00;;;0.00;;
41719;SDS011;27405;53.316;-6.294;2024-02-14T00:38:44;0.10;;;0.10;;
41719;SDS011;27405;53.316;-6.294;2024-02-14T00:41:10;0.00;;;0.00;;
41719;SDS011;27405;53.316;-6.294;2024-02-14T00:43:36;0.10;;;0.10;;
41719;SDS011;27405;53.316;-6.294;2024-02-14T00:46:02;0.10;;;0.10;;
41719;SDS011;27405;53.316;-6.294;2024-02-14T00:48:27;0.10;;;0.10;;
41719;SDS011;27405;53.316;-6.294;2024-02-14T00:50:53;0.00;;;0.00;;
41719;SDS011;27405;53.316;-6.294;2024-02-14T00:53:19;0.10;;;0.10;;
41719;SDS011;27405;53.316;-6.294;2024-02-14T00:55:45;0.00;;;0.00;;
41719;SDS011;27405;53.316;-6.294;2024-02-14T00:58:11;0.05;;;0.05;;
41719;SDS011;27405;53.316;-6.294;2024-02-14T01:00:37;0.10;;;0.10;;
41719;SDS011;27405;53.316;-6.294;2024-02-14T01:03:03;0.00;;;0.00;;
41719;SDS011;27405;53.316;-6.294;2024-02-14T01:05:29;0.10;;;0.10;;
41719;SDS011;27405;53.316;-6.294;2024-02-14T01:07:54;0.10;;;0.10;;
41719;SDS011;27405;53.316;-6.294;2024-02-14T01:10:20;0.00;;;0.00;;
41719;SDS011;27405;53.316;-6.294;2024-02-14T01:12:46;0.10;;;0.10;;
41719;SDS011;27405;53.316;-6.294;2024-02-14T01:15:11;0.00;;;0.00;;
41719;SDS011;27405;53.316;-6.294;2024-02-14T01:17:37;0.10;;;0.10;;
41719;SDS011;27405;53.316;-6.294;2024-02-14T01:20:04;0.10;;;0.10;;
41719;SDS011;27405;53.316;-6.294;2024-02-14T01:22:35;0.10;;;0.10;;
41719;SDS011;27405;53.316;-6.294;2024-02-14T01:25:01;0.10;;;0.10;;
41719;SDS011;27405;53.316;-6.294;2024-02-14T01:27:28;0.00;;;0.00;;
41719;SDS011;27405;53.316;-6.294;2024-02-14T01:29:53;0.10;;;0.10;;
41719;SDS011;27405;53.316;-6.294;2024-02-14T01:32:20;0.10;;;0.10;;
41719;SDS011;27405;53.316;-6.294;2024-02-14T01:34:45;0.10;;;0.10;;
41719;SDS011;27405;53.316;-6.294;2024-02-14T01:37:11;0.10;;;0.10;;
41719;SDS011;27405;53.316;-6.294;2024-02-14T01:39:37;0.10;;;0.10;;
41719;SDS011;27405;53.316;-6.294;2024-02-14T01:42:02;0.10;;;0.10;;
41719;SDS011;27405;53.316;-6.294;2024-02-14T01:44:32;0.10;;;0.10;;
41719;SDS011;27405;53.316;-6.294;2024-02-14T01:46:59;0.10;;;0.10;;
41719;SDS011;27405;53.316;-6.294;2024-02-14T01:49:25;0.10;;;0.10;;
41719;SDS011;27405;53.316;-6.294;2024-02-14T01:51:53;0.10;;;0.10;;
41719;SDS011;27405;53.316;-6.294;2024-02-14T01:54:26;0.10;;;0.10;;
41719;SDS011;27405;53.316;-6.294;2024-02-14T01:56:52;0.28;;;0.20;;
41719;SDS011;27405;53.316;-6.294;2024-02-14T01:59:19;0.00;;;0.00;;
41719;SDS011;27405;53.316;-6.294;2024-02-14T02:01:45;0.10;;;0.10;;
41719;SDS011;27405;53.316;-6.294;2024-02-14T02:04:11;0.10;;;0.10;;
41719;SDS011;27405;53.316;-6.294;2024-02-14T02:06:37;0.10;;;0.10;;
41719;SDS011;27405;53.316;-6.294;2024-02-14T02:09:05;0.00;;;0.00;;
41719;SDS011;27405;53.316;-6.294;2024-02-14T02:11:41;0.10;;;0.10;;
41719;SDS011;27405;53.316;-6.294;2024-02-14T02:14:11;0.10;;;0.10;;
41719;SDS011;27405;53.316;-6.294;2024-02-14T02:16:37;0.10;;;0.10;;
41719;SDS011;27405;53.316;-6.294;2024-02-14T02:19:03;0.08;;;0.08;;
41719;SDS011;27405;53.316;-6.294;2024-02-14T02:21:33;0.10;;;0.10;;
41719;SDS011;27405;53.316;-6.294;2024-02-14T02:24:00;0.00;;;0.00;;
41719;SDS011;27405;53.316;-6.294;2024-02-14T02:26:26;0.20;;;0.20;;
41719;SDS011;27405;53.316;-6.294;2024-02-14T02:28:52;0.00;;;0.00;;
41719;SDS011;27405;53.316;-6.294;2024-02-14T02:31:18;0.03;;;0.03;;
41719;SDS011;27405;53.316;-6.294;2024-02-14T02:33:44;0.10;;;0.10;;
41719;SDS011;27405;53.316;-6.294;2024-02-14T02:36:10;0.10;;;0.10;;
41719;SDS011;27405;53.316;-6.294;2024-02-14T02:38:36;0.10;;;0.10;;
41719;SDS011;27405;53.316;-6.294;2024-02-14T02:41:02;0.17;;;0.17;;
41719;SDS011;27405;53.316;-6.294;2024-02-14T02:43:31;0.00;;;0.00;;
41719;SDS011;27405;53.316;-6.294;2024-02-14T02:45:58;0.08;;;0.08;;
41719;SDS011;27405;53.316;-6.294;2024-02-14T02:48:23;0.10;;;0.10;;
41719;SDS011;27405;53.316;-6.294;2024-02-14T02:50:49;0.00;;;0.00;;
41719;SDS011;27405;53.316;-6.294;2024-02-14T02:53:16;0.10;;;0.10;;
41719;SDS011;27405;53.316;-6.294;2024-02-14T02:55:42;0.00;;;0.00;;
41719;SDS011;27405;53.316;-6.294;2024-02-14T02:58:08;0.17;;;0.17;;
41719;SDS011;27405;53.316;-6.294;2024-02-14T03:00:34;0.10;;;0.10;;
41719;SDS011;27405;53.316;-6.294;2024-02-14T03:03:00;0.10;;;0.10;;
41719;SDS011;27405;53.316;-6.294;2024-02-14T03:05:27;0.00;;;0.00;;
41719;SDS011;27405;53.316;-6.294;2024-02-14T03:07:56;0.00;;;0.00;;
41719;SDS011;27405;53.316;-6.294;2024-02-14T03:10:23;0.10;;;0.10;;
41719;SDS011;27405;53.316;-6.294;2024-02-14T03:12:50;0.10;;;0.10;;
41719;SDS011;27405;53.316;-6.294;2024-02-14T03:15:16;0.10;;;0.10;;
41719;SDS011;27405;53.316;-6.294;2024-02-14T03:17:43;0.10;;;0.10;;
41719;SDS011;27405;53.316;-6.294;2024-02-14T03:20:09;0.10;;;0.10;;
41719;SDS011;27405;53.316;-6.294;2024-02-14T03:22:41;0.08;;;0.08;;
41719;SDS011;27405;53.316;-6.294;2024-02-14T03:25:11;12.93;;;2.05;;
41719;SDS011;27405;53.316;-6.294;2024-02-14T03:27:44;9.10;;;2.03;;
41719;SDS011;27405;53.316;-6.294;2024-02-14T03:30:12;7.05;;;2.35;;
41719;SDS011;27405;53.316;-6.294;2024-02-14T03:32:41;8.02;;;1.75;;
41719;SDS011;27405;53.316;-6.294;2024-02-14T03:35:07;11.25;;;1.75;;
41719;SDS011;27405;53.316;-6.294;2024-02-14T03:37:35;8.75;;;2.00;;
41719;SDS011;27405;53.316;-6.294;2024-02-14T03:40:02;6.60;;;1.70;;
41719;SDS011;27405;53.316;-6.294;2024-02-14T03:42:29;9.00;;;2.05;;
41719;SDS011;27405;53.316;-6.294;2024-02-14T03:44:55;6.90;;;1.52;;
41719;SDS011;27405;53.316;-6.294;2024-02-14T03:47:27;8.75;;;2.20;;
41719;SDS011;27405;53.316;-6.294;2024-02-14T03:49:54;7.03;;;1.73;;
41719;SDS011;27405;53.316;-6.294;2024-02-14T03:52:20;10.00;;;1.83;;
41719;SDS011;27405;53.316;-6.294;2024-02-14T03:54:47;6.00;;;1.52;;
41719;SDS011;27405;53.316;-6.294;2024-02-14T03:57:13;11.50;;;2.17;;
41719;SDS011;27405;53.316;-6.294;2024-02-14T03:59:39;10.30;;;1.83;;
41719;SDS011;27405;53.316;-6.294;2024-02-14T04:02:05;6.72;;;1.45;;
41719;SDS011;27405;53.316;-6.294;2024-02-14T04:04:34;9.85;;;2.03;;
41719;SDS011;27405;53.316;-6.294;2024-02-14T04:07:02;10.00;;;1.92;;
41719;SDS011;27405;53.316;-6.294;2024-02-14T04:09:28;6.68;;;1.67;;
41719;SDS011;27405;53.316;-6.294;2024-02-14T04:11:54;7.25;;;1.85;;
41719;SDS011;27405;53.316;-6.294;2024-02-14T04:14:20;8.77;;;1.63;;
41719;SDS011;27405;53.316;-6.294;2024-02-14T04:16:46;8.48;;;1.65;;
41719;SDS011;27405;53.316;-6.294;2024-02-14T04:19:11;6.55;;;1.52;;
41719;SDS011;27405;53.316;-6.294;2024-02-14T04:21:38;8.43;;;1.90;;
41719;SDS011;27405;53.316;-6.294;2024-02-14T04:24:03;8.70;;;1.85;;
41719;SDS011;27405;53.316;-6.294;2024-02-14T04:26:29;6.75;;;1.63;;
41719;SDS011;27405;53.316;-6.294;2024-02-14T04:28:55;10.45;;;2.10;;
41719;SDS011;27405;53.316;-6.294;2024-02-14T04:31:21;7.70;;;1.70;;
41719;SDS011;27405;53.316;-6.294;2024-02-14T04:33:46;9.43;;;1.80;;
41719;SDS011;27405;53.316;-6.294;2024-02-14T04:36:19;6.00;;;1.70;;
41719;SDS011;27405;53.316;-6.294;2024-02-14T04:38:46;10.50;;;1.77;;
41719;SDS011;27405;53.316;-6.294;2024-02-14T04:41:12;10.15;;;1.90;;
41719;SDS011;27405;53.316;-6.294;2024-02-14T04:43:39;10.00;;;1.98;;
41719;SDS011;27405;53.316;-6.294;2024-02-14T04:46:05;8.90;;;2.03;;
41719;SDS011;27405;53.316;-6.294;2024-02-14T04:48:35;9.80;;;2.00;;
41719;SDS011;27405;53.316;-6.294;2024-02-14T04:51:02;14.32;;;2.53;;
41719;SDS011;27405;53.316;-6.294;2024-02-14T04:53:28;11.55;;;1.95;;
41719;SDS011;27405;53.316;-6.294;2024-02-14T04:55:54;11.48;;;2.42;;
41719;SDS011;27405;53.316;-6.294;2024-02-14T04:58:20;11.50;;;2.40;;
41719;SDS011;27405;53.316;-6.294;2024-02-14T05:00:45;14.93;;;2.85;;
41719;SDS011;27405;53.316;-6.294;2024-02-14T05:03:11;11.30;;;2.17;;
41719;SDS011;27405;53.316;-6.294;2024-02-14T05:05:37;15.05;;;2.60;;
41719;SDS011;27405;53.316;-6.294;2024-02-14T05:08:03;12.52;;;2.50;;
41719;SDS011;27405;53.316;-6.294;2024-02-14T05:10:29;13.85;;;3.10;;
41719;SDS011;27405;53.316;-6.294;2024-02-14T05:15:24;14.02;;;2.78;;
41719;SDS011;27405;53.316;-6.294;2024-02-14T05:17:50;14.25;;;2.75;;
41719;SDS011;27405;53.316;-6.294;2024-02-14T05:20:16;15.60;;;2.58;;
41719;SDS011;27405;53.316;-6.294;2024-02-14T05:22:41;14.52;;;2.53;;
41719;SDS011;27405;53.316;-6.294;2024-02-14T05:25:07;17.35;;;2.97;;
41719;SDS011;27405;53.316;-6.294;2024-02-14T05:27:36;19.42;;;3.28;;
41719;SDS011;27405;53.316;-6.294;2024-02-14T05:30:02;22.30;;;3.08;;
41719;SDS011;27405;53.316;-6.294;2024-02-14T05:32:30;14.70;;;2.53;;
41719;SDS011;27405;53.316;-6.294;2024-02-14T05:34:59;16.80;;;2.88;;
41719;SDS011;27405;53.316;-6.294;2024-02-14T05:37:25;17.00;;;3.13;;
41719;SDS011;27405;53.316;-6.294;2024-02-14T05:42:20;21.08;;;3.25;;
41719;SDS011;27405;53.316;-6.294;2024-02-14T05:44:46;19.98;;;3.50;;
41719;SDS011;27405;53.316;-6.294;2024-02-14T05:47:12;27.25;;;4.30;;
41719;SDS011;27405;53.316;-6.294;2024-02-14T05:49:39;18.95;;;3.25;;
41719;SDS011;27405;53.316;-6.294;2024-02-14T05:52:05;23.02;;;3.53;;
41719;SDS011;27405;53.316;-6.294;2024-02-14T05:54:31;20.10;;;3.13;;
41719;SDS011;27405;53.316;-6.294;2024-02-14T05:56:57;17.92;;;3.13;;
41719;SDS011;27405;53.316;-6.294;2024-02-14T05:59:23;21.42;;;4.05;;
41719;SDS011;27405;53.316;-6.294;2024-02-14T06:01:49;20.67;;;3.10;;
41719;SDS011;27405;53.316;-6.294;2024-02-14T06:04:15;23.58;;;3.30;;
41719;SDS011;27405;53.316;-6.294;2024-02-14T06:06:40;19.88;;;3.25;;
41719;SDS011;27405;53.316;-6.294;2024-02-14T06:09:06;19.88;;;3.22;;
41719;SDS011;27405;53.316;-6.294;2024-02-14T06:11:38;24.40;;;3.53;;
41719;SDS011;27405;53.316;-6.294;2024-02-14T06:14:06;24.42;;;3.40;;
41719;SDS011;27405;53.316;-6.294;2024-02-14T06:16:33;28.10;;;3.65;;
41719;SDS011;27405;53.316;-6.294;2024-02-14T06:18:59;22.45;;;3.15;;
41719;SDS011;27405;53.316;-6.294;2024-02-14T06:21:26;23.58;;;4.22;;
41719;SDS011;27405;53.316;-6.294;2024-02-14T06:23:52;24.20;;;3.60;;
41719;SDS011;27405;53.316;-6.294;2024-02-14T06:26:18;25.35;;;3.55;;
41719;SDS011;27405;53.316;-6.294;2024-02-14T06:28:44;28.52;;;4.53;;
41719;SDS011;27405;53.316;-6.294;2024-02-14T06:31:10;18.88;;;3.38;;
41719;SDS011;27405;53.316;-6.294;2024-02-14T06:33:36;19.38;;;3.70;;
41719;SDS011;27405;53.316;-6.294;2024-02-14T06:36:01;18.85;;;3.55;;
41719;SDS011;27405;53.316;-6.294;2024-02-14T06:38:27;26.13;;;4.10;;
41719;SDS011;27405;53.316;-6.294;2024-02-14T06:40:53;22.30;;;3.88;;
41719;SDS011;27405;53.316;-6.294;2024-02-14T06:43:19;19.42;;;3.50;;
41719;SDS011;27405;53.316;-6.294;2024-02-14T06:45:45;23.10;;;3.50;;
41719;SDS011;27405;53.316;-6.294;2024-02-14T06:48:10;26.92;;;4.45;;
41719;SDS011;27405;53.316;-6.294;2024-02-14T06:50:36;23.25;;;4.20;;
41719;SDS011;27405;53.316;-6.294;2024-02-14T06:53:02;25.88;;;3.60;;
41719;SDS011;27405;53.316;-6.294;2024-02-14T06:55:28;19.98;;;3.40;;
41719;SDS011;27405;53.316;-6.294;2024-02-14T06:57:57;21.27;;;3.60;;
41719;SDS011;27405;53.316;-6.294;2024-02-14T07:00:24;23.05;;;3.40;;
41719;SDS011;27405;53.316;-6.294;2024-02-14T07:02:50;25.80;;;4.47;;
41719;SDS011;27405;53.316;-6.294;2024-02-14T07:05:16;27.15;;;4.68;;
41719;SDS011;27405;53.316;-6.294;2024-02-14T07:07:41;27.80;;;4.68;;
41719;SDS011;27405;53.316;-6.294;2024-02-14T07:10:07;28.95;;;4.85;;
41719;SDS011;27405;53.316;-6.294;2024-02-14T07:12:33;24.85;;;4.28;;
41719;SDS011;27405;53.316;-6.294;2024-02-14T07:15:01;26.10;;;3.88;;
41719;SDS011;27405;53.316;-6.294;2024-02-14T07:17:29;24.17;;;4.75;;
41719;SDS011;27405;53.316;-6.294;2024-02-14T07:19:55;25.85;;;4.10;;
41719;SDS011;27405;53.316;-6.294;2024-02-14T07:22:20;21.85;;;4.25;;
41719;SDS011;27405;53.316;-6.294;2024-02-14T07:24:46;23.65;;;4.03;;
41719;SDS011;27405;53.316;-6.294;2024-02-14T07:27:14;22.88;;;4.10;;
41719;SDS011;27405;53.316;-6.294;2024-02-14T07:29:41;24.17;;;4.40;;
41719;SDS011;27405;53.316;-6.294;2024-02-14T07:32:07;21.30;;;3.78;;
41719;SDS011;27405;53.316;-6.294;2024-02-14T07:34:33;21.27;;;4.05;;
41719;SDS011;27405;53.316;-6.294;2024-02-14T07:36:58;23.55;;;3.85;;
41719;SDS011;27405;53.316;-6.294;2024-02-14T07:39:24;24.40;;;3.72;;
41719;SDS011;27405;53.316;-6.294;2024-02-14T07:41:50;19.33;;;3.72;;
41719;SDS011;27405;53.316;-6.294;2024-02-14T07:44:16;17.70;;;3.30;;
41719;SDS011;27405;53.316;-6.294;2024-02-14T07:46:42;17.10;;;3.00;;
41719;SDS011;27405;53.316;-6.294;2024-02-14T07:49:07;16.13;;;2.97;;
41719;SDS011;27405;53.316;-6.294;2024-02-14T07:51:34;12.88;;;2.13;;
41719;SDS011;27405;53.316;-6.294;2024-02-14T07:54:03;10.73;;;2.58;;
41719;SDS011;27405;53.316;-6.294;2024-02-14T07:56:29;12.95;;;2.28;;
41719;SDS011;27405;53.316;-6.294;2024-02-14T07:58:55;16.98;;;2.75;;
41719;SDS011;27405;53.316;-6.294;2024-02-14T08:01:20;11.50;;;2.35;;
41719;SDS011;27405;53.316;-6.294;2024-02-14T08:03:46;16.02;;;2.78;;
41719;SDS011;27405;53.316;-6.294;2024-02-14T08:06:12;10.90;;;2.38;;
41719;SDS011;27405;53.316;-6.294;2024-02-14T08:08:38;12.90;;;2.40;;
41719;SDS011;27405;53.316;-6.294;2024-02-14T08:11:04;11.10;;;1.67;;
41719;SDS011;27405;53.316;-6.294;2024-02-14T08:13:30;9.73;;;1.80;;
41719;SDS011;27405;53.316;-6.294;2024-02-14T08:15:55;8.23;;;1.67;;
41719;SDS011;27405;53.316;-6.294;2024-02-14T08:18:21;8.45;;;1.20;;
41719;SDS011;27405;53.316;-6.294;2024-02-14T08:20:48;6.43;;;1.48;;
41719;SDS011;27405;53.316;-6.294;2024-02-14T08:23:13;3.78;;;0.82;;
41719;SDS011;27405;53.316;-6.294;2024-02-14T08:25:39;5.38;;;1.48;;
41719;SDS011;27405;53.316;-6.294;2024-02-14T08:28:06;7.05;;;1.38;;
41719;SDS011;27405;53.316;-6.294;2024-02-14T08:30:32;3.30;;;0.98;;
41719;SDS011;27405;53.316;-6.294;2024-02-14T08:32:58;5.18;;;1.05;;
41719;SDS011;27405;53.316;-6.294;2024-02-14T08:35:24;8.85;;;1.60;;
41719;SDS011;27405;53.316;-6.294;2024-02-14T08:37:50;3.05;;;0.80;;
41719;SDS011;27405;53.316;-6.294;2024-02-14T08:40:15;4.05;;;1.10;;
41719;SDS011;27405;53.316;-6.294;2024-02-14T08:42:41;7.50;;;1.27;;
41719;SDS011;27405;53.316;-6.294;2024-02-14T08:45:07;5.35;;;1.20;;
41719;SDS011;27405;53.316;-6.294;2024-02-14T08:47:33;7.25;;;1.25;;
41719;SDS011;27405;53.316;-6.294;2024-02-14T08:49:59;8.57;;;1.40;;
41719;SDS011;27405;53.316;-6.294;2024-02-14T08:52:25;7.20;;;1.17;;
41719;SDS011;27405;53.316;-6.294;2024-02-14T08:54:51;4.95;;;1.55;;
41719;SDS011;27405;53.316;-6.294;2024-02-14T08:57:17;8.15;;;1.50;;
41719;SDS011;27405;53.316;-6.294;2024-02-14T08:59:44;7.05;;;1.15;;
41719;SDS011;27405;53.316;-6.294;2024-02-14T09:02:13;9.20;;;1.52;;
41719;SDS011;27405;53.316;-6.294;2024-02-14T09:04:39;8.95;;;1.92;;
41719;SDS011;27405;53.316;-6.294;2024-02-14T09:07:09;6.25;;;1.75;;
41719;SDS011;27405;53.316;-6.294;2024-02-14T09:09:35;5.40;;;1.40;;
41719;SDS011;27405;53.316;-6.294;2024-02-14T09:12:02;12.82;;;2.15;;
41719;SDS011;27405;53.316;-6.294;2024-02-14T09:14:29;7.72;;;2.20;;
41719;SDS011;27405;53.316;-6.294;2024-02-14T09:16:55;11.75;;;2.50;;
41719;SDS011;27405;53.316;-6.294;2024-02-14T09:19:21;14.45;;;2.42;;
41719;SDS011;27405;53.316;-6.294;2024-02-14T09:21:47;14.95;;;2.40;;
41719;SDS011;27405;53.316;-6.294;2024-02-14T09:24:13;16.60;;;2.60;;
41719;SDS011;27405;53.316;-6.294;2024-02-14T09:26:39;18.27;;;2.78;;
41719;SDS011;27405;53.316;-6.294;2024-02-14T09:29:05;12.68;;;2.47;;
41719;SDS011;27405;53.316;-6.294;2024-02-14T09:31:30;14.30;;;2.55;;
41719;SDS011;27405;53.316;-6.294;2024-02-14T09:33:56;10.65;;;2.35;;
41719;SDS011;27405;53.316;-6.294;2024-02-14T09:36:23;16.98;;;3.33;;
41719;SDS011;27405;53.316;-6.294;2024-02-14T09:38:50;17.67;;;2.70;;
41719;SDS011;27405;53.316;-6.294;2024-02-14T09:41:31;14.80;;;2.80;;
41719;SDS011;27405;53.316;-6.294;2024-02-14T09:44:00;14.27;;;2.70;;
41719;SDS011;27405;53.316;-6.294;2024-02-14T09:46:25;16.30;;;3.30;;
41719;SDS011;27405;53.316;-6.294;2024-02-14T09:48:52;11.30;;;2.63;;
41719;SDS011;27405;53.316;-6.294;2024-02-14T09:51:18;9.35;;;2.00;;
41719;SDS011;27405;53.316;-6.294;2024-02-14T09:53:44;9.90;;;2.10;;
41719;SDS011;27405;53.316;-6.294;2024-02-14T09:56:11;13.57;;;2.38;;
41719;SDS011;27405;53.316;-6.294;2024-02-14T09:58:38;8.98;;;2.05;;
41719;SDS011;27405;53.316;-6.294;2024-02-14T10:01:05;11.35;;;2.38;;
41719;SDS011;27405;53.316;-6.294;2024-02-14T10:03:32;9.35;;;2.05;;
41719;SDS011;27405;53.316;-6.294;2024-02-14T10:05:59;8.48;;;1.70;;
41719;SDS011;27405;53.316;-6.294;2024-02-14T10:08:24;5.97;;;1.48;;
41719;SDS011;27405;53.316;-6.294;2024-02-14T10:10:51;12.02;;;1.83;;
41719;SDS011;27405;53.316;-6.294;2024-02-14T10:13:17;8.73;;;1.80;;
41719;SDS011;27405;53.316;-6.294;2024-02-14T10:15:43;6.47;;;1.80;;
41719;SDS011;27405;53.316;-6.294;2024-02-14T10:18:09;10.10;;;1.40;;
41719;SDS011;27405;53.316;-6.294;2024-02-14T10:20:35;6.90;;;1.92;;
41719;SDS011;27405;53.316;-6.294;2024-02-14T10:23:07;7.82;;;1.73;;
41719;SDS011;27405;53.316;-6.294;2024-02-14T10:25:37;8.40;;;2.03;;
41719;SDS011;27405;53.316;-6.294;2024-02-14T10:28:06;8.00;;;1.70;;
41719;SDS011;27405;53.316;-6.294;2024-02-14T10:30:36;10.55;;;1.77;;
41719;SDS011;27405;53.316;-6.294;2024-02-14T10:33:05;9.25;;;1.85;;
41719;SDS011;27405;53.316;-6.294;2024-02-14T10:35:32;13.50;;;2.60;;
41719;SDS011;27405;53.316;-6.294;2024-02-14T10:38:01;10.48;;;2.08;;
41719;SDS011;27405;53.316;-6.294;2024-02-14T10:40:27;11.50;;;1.88;;
41719;SDS011;27405;53.316;-6.294;2024-02-14T10:42:54;9.65;;;1.73;;
41719;SDS011;27405;53.316;-6.294;2024-02-14T10:45:22;7.05;;;1.35;;
41719;SDS011;27405;53.316;-6.294;2024-02-14T10:47:48;8.88;;;2.10;;
41719;SDS011;27405;53.316;-6.294;2024-02-14T10:50:16;8.50;;;2.57;;
41719;SDS011;27405;53.316;-6.294;2024-02-14T10:52:42;9.93;;;1.88;;
41719;SDS011;27405;53.316;-6.294;2024-02-14T10:55:11;9.35;;;2.17;;
41719;SDS011;27405;53.316;-6.294;2024-02-14T10:57:37;11.13;;;3.58;;
41719;SDS011;27405;53.316;-6.294;2024-02-14T11:00:06;11.63;;;2.67;;
41719;SDS011;27405;53.316;-6.294;2024-02-14T11:02:35;6.82;;;1.70;;
41719;SDS011;27405;53.316;-6.294;2024-02-14T11:05:02;7.15;;;1.80;;
41719;SDS011;27405;53.316;-6.294;2024-02-14T11:07:29;9.70;;;2.03;;
41719;SDS011;27405;53.316;-6.294;2024-02-14T11:10:08;7.65;;;1.70;;
41719;SDS011;27405;53.316;-6.294;2024-02-14T11:12:38;12.68;;;2.03;;
41719;SDS011;27405;53.316;-6.294;2024-02-14T11:15:19;7.97;;;1.70;;
41719;SDS011;27405;53.316;-6.294;2024-02-14T11:17:46;8.70;;;1.90;;
41719;SDS011;27405;53.316;-6.294;2024-02-14T11:20:18;7.28;;;1.90;;
41719;SDS011;27405;53.316;-6.294;2024-02-14T11:22:54;7.22;;;1.65;;
41719;SDS011;27405;53.316;-6.294;2024-02-14T11:25:29;11.45;;;1.90;;
41719;SDS011;27405;53.316;-6.294;2024-02-14T11:28:12;6.03;;;1.52;;
41719;SDS011;27405;53.316;-6.294;2024-02-14T11:30:39;7.95;;;1.50;;
41719;SDS011;27405;53.316;-6.294;2024-02-14T11:33:13;7.40;;;1.73;;
41719;SDS011;27405;53.316;-6.294;2024-02-14T11:35:43;5.10;;;1.30;;
41719;SDS011;27405;53.316;-6.294;2024-02-14T11:38:10;5.70;;;1.15;;
41719;SDS011;27405;53.316;-6.294;2024-02-14T11:40:36;6.80;;;1.48;;
41719;SDS011;27405;53.316;-6.294;2024-02-14T11:43:18;7.10;;;1.50;;
41719;SDS011;27405;53.316;-6.294;2024-02-14T11:45:48;7.28;;;1.65;;
41719;SDS011;27405;53.316;-6.294;2024-02-14T11:48:19;10.57;;;1.80;;
41719;SDS011;27405;53.316;-6.294;2024-02-14T11:50:46;10.20;;;3.13;;
41719;SDS011;27405;53.316;-6.294;2024-02-14T11:53:12;9.98;;;1.70;;
41719;SDS011;27405;53.316;-6.294;2024-02-14T11:55:41;7.05;;;1.52;;
41719;SDS011;27405;53.316;-6.294;2024-02-14T11:58:08;8.60;;;1.88;;
41719;SDS011;27405;53.316;-6.294;2024-02-14T12:00:38;6.53;;;1.52;;
41719;SDS011;27405;53.316;-6.294;2024-02-14T12:03:12;9.75;;;1.58;;
41719;SDS011;27405;53.316;-6.294;2024-02-14T12:05:41;7.53;;;1.58;;
41719;SDS011;27405;53.316;-6.294;2024-02-14T12:10:36;8.60;;;1.77;;
41719;SDS011;27405;53.316;-6.294;2024-02-14T12:13:07;11.10;;;2.10;;
41719;SDS011;27405;53.316;-6.294;2024-02-14T12:15:38;15.65;;;3.70;;
41719;SDS011;27405;53.316;-6.294;2024-02-14T12:18:04;12.15;;;2.20;;
41719;SDS011;27405;53.316;-6.294;2024-02-14T12:20:30;13.90;;;2.25;;
41719;SDS011;27405;53.316;-6.294;2024-02-14T12:22:58;9.93;;;2.15;;
41719;SDS011;27405;53.316;-6.294;2024-02-14T12:25:24;10.52;;;2.28;;
41719;SDS011;27405;53.316;-6.294;2024-02-14T12:27:51;15.60;;;2.10;;
41719;SDS011;27405;53.316;-6.294;2024-02-14T12:30:18;13.30;;;2.30;;
41719;SDS011;27405;53.316;-6.294;2024-02-14T12:32:45;12.88;;;2.42;;
41719;SDS011;27405;53.316;-6.294;2024-02-14T12:35:11;18.63;;;3.75;;
41719;SDS011;27405;53.316;-6.294;2024-02-14T12:37:37;18.52;;;3.35;;
41719;SDS011;27405;53.316;-6.294;2024-02-14T12:40:03;16.00;;;2.88;;
41719;SDS011;27405;53.316;-6.294;2024-02-14T12:42:30;14.70;;;2.72;;
41719;SDS011;27405;53.316;-6.294;2024-02-14T12:44:57;14.93;;;2.70;;
41719;SDS011;27405;53.316;-6.294;2024-02-14T12:47:23;14.68;;;3.03;;
41719;SDS011;27405;53.316;-6.294;2024-02-14T12:49:51;16.77;;;3.63;;
41719;SDS011;27405;53.316;-6.294;2024-02-14T12:52:17;19.02;;;3.28;;
41719;SDS011;27405;53.316;-6.294;2024-02-14T12:54:43;20.02;;;3.33;;
41719;SDS011;27405;53.316;-6.294;2024-02-14T12:57:09;15.50;;;2.90;;
41719;SDS011;27405;53.316;-6.294;2024-02-14T12:59:34;19.85;;;3.90;;
41719;SDS011;27405;53.316;-6.294;2024-02-14T13:02:00;19.10;;;3.53;;
41719;SDS011;27405;53.316;-6.294;2024-02-14T13:04:27;23.95;;;4.30;;
41719;SDS011;27405;53.316;-6.294;2024-02-14T13:06:53;24.40;;;4.38;;
41719;SDS011;27405;53.316;-6.294;2024-02-14T13:09:19;21.90;;;3.85;;
41719;SDS011;27405;53.316;-6.294;2024-02-14T13:11:45;25.88;;;4.60;;
41719;SDS011;27405;53.316;-6.294;2024-02-14T13:14:10;23.95;;;4.30;;
41719;SDS011;27405;53.316;-6.294;2024-02-14T13:16:36;24.48;;;4.90;;
41719;SDS011;27405;53.316;-6.294;2024-02-14T13:19:02;30.42;;;5.10;;
41719;SDS011;27405;53.316;-6.294;2024-02-14T13:21:28;31.40;;;5.78;;
41719;SDS011;27405;53.316;-6.294;2024-02-14T13:23:54;30.17;;;5.13;;
41719;SDS011;27405;53.316;-6.294;2024-02-14T13:28:49;25.42;;;5.10;;
41719;SDS011;27405;53.316;-6.294;2024-02-14T13:31:15;32.78;;;6.05;;
41719;SDS011;27405;53.316;-6.294;2024-02-14T13:33:41;30.10;;;6.25;;
41719;SDS011;27405;53.316;-6.294;2024-02-14T13:36:06;32.10;;;5.60;;
41719;SDS011;27405;53.316;-6.294;2024-02-14T13:38:32;33.67;;;6.05;;
41719;SDS011;27405;53.316;-6.294;2024-02-14T13:40:58;28.83;;;6.20;;
41719;SDS011;27405;53.316;-6.294;2024-02-14T13:43:24;34.78;;;6.53;;
41719;SDS011;27405;53.316;-6.294;2024-02-14T13:45:50;38.30;;;6.72;;
41719;SDS011;27405;53.316;-6.294;2024-02-14T13:48:16;41.35;;;7.30;;
41719;SDS011;27405;53.316;-6.294;2024-02-14T13:50:41;41.35;;;7.20;;
41719;SDS011;27405;53.316;-6.294;2024-02-14T13:53:08;36.53;;;6.07;;
41719;SDS011;27405;53.316;-6.294;2024-02-14T13:55:36;35.42;;;6.20;;
41719;SDS011;27405;53.316;-6.294;2024-02-14T13:58:02;37.53;;;7.05;;
41719;SDS011;27405;53.316;-6.294;2024-02-14T14:00:28;37.75;;;6.00;;
41719;SDS011;27405;53.316;-6.294;2024-02-14T14:02:54;39.38;;;7.05;;
41719;SDS011;27405;53.316;-6.294;2024-02-14T14:05:20;31.92;;;6.50;;
41719;SDS011;27405;53.316;-6.294;2024-02-14T14:07:47;33.63;;;6.25;;
41719;SDS011;27405;53.316;-6.294;2024-02-14T14:10:12;41.33;;;7.25;;
41719;SDS011;27405;53.316;-6.294;2024-02-14T14:12:38;38.35;;;6.78;;
41719;SDS011;27405;53.316;-6.294;2024-02-14T14:15:04;38.97;;;7.15;;
41719;SDS011;27405;53.316;-6.294;2024-02-14T14:17:30;35.25;;;7.43;;
41719;SDS011;27405;53.316;-6.294;2024-02-14T14:19:56;38.40;;;7.10;;
41719;SDS011;27405;53.316;-6.294;2024-02-14T14:22:22;36.35;;;6.47;;
41719;SDS011;27405;53.316;-6.294;2024-02-14T14:24:48;39.55;;;6.53;;
41719;SDS011;27405;53.316;-6.294;2024-02-14T14:27:13;35.22;;;6.13;;
41719;SDS011;27405;53.316;-6.294;2024-02-14T14:29:43;38.25;;;7.20;;
41719;SDS011;27405;53.316;-6.294;2024-02-14T14:32:11;39.78;;;7.43;;
41719;SDS011;27405;53.316;-6.294;2024-02-14T14:34:37;44.90;;;7.38;;
41719;SDS011;27405;53.316;-6.294;2024-02-14T14:37:02;37.92;;;7.32;;